sensor_id;sensor_type;location;lat;lon;timestamp;P1;durP1;ratioP1;P2;durP2;ratioP2
48651;SDS011;34442;52.362;-1.302;2023-03-01T00:01:49;1.10;;;0.70;;
48651;SDS011;34442;52.362;-1.302;2023-03-01T00:04:15;1.75;;;1.00;;
48651;SDS011;34442;52.362;-1.302;2023-03-01T00:06:41;1.20;;;0.70;;
48651;SDS011;34442;52.362;-1.302;2023-03-01T00:09:08;0.77;;;0.60;;
48651;SDS011;34442;52.362;-1.302;2023-03-01T00:11:33;1.00;;;0.70;;
48651;SDS011;34442;52.362;-1.302;2023-03-01T00:13:59;0.60;;;0.60;;
48651;SDS011;34442;52.362;-1.302;2023-03-01T00:16:30;1.77;;;0.80;;
48651;SDS011;34442;52.362;-1.302;2023-03-01T00:18:58;1.05;;;0.70;;
48651;SDS011;34442;52.362;-1.302;2023-03-01T00:21:24;0.90;;;0.68;;
48651;SDS011;34442;52.362;-1.302;2023-03-01T00:23:51;0.55;;;0.55;;
48651;SDS011;34442;52.362;-1.302;2023-03-01T00:26:18;0.88;;;0.82;;
48651;SDS011;34442;52.362;-1.302;2023-03-01T00:28:44;1.35;;;0.85;;
48651;SDS011;34442;52.362;-1.302;2023-03-01T00:31:11;0.95;;;0.60;;
48651;SDS011;34442;52.362;-1.302;2023-03-01T00:33:40;0.50;;;0.50;;
48651;SDS011;34442;52.362;-1.302;2023-03-01T00:36:07;0.60;;;0.60;;
48651;SDS011;34442;52.362;-1.302;2023-03-01T00:38:37;0.57;;;0.50;;
48651;SDS011;34442;52.362;-1.302;2023-03-01T00:41:05;0.70;;;0.70;;
48651;SDS011;34442;52.362;-1.302;2023-03-01T00:43:31;0.60;;;0.60;;
48651;SDS011;34442;52.362;-1.302;2023-03-01T00:46:01;1.58;;;0.70;;
48651;SDS011;34442;52.362;-1.302;2023-03-01T00:48:32;0.68;;;0.60;;
48651;SDS011;34442;52.362;-1.302;2023-03-01T00:51:03;1.10;;;0.88;;
48651;SDS011;34442;52.362;-1.302;2023-03-01T00:53:32;0.77;;;0.63;;
48651;SDS011;34442;52.362;-1.302;2023-03-01T00:55:58;0.70;;;0.70;;
48651;SDS011;34442;52.362;-1.302;2023-03-01T00:58:23;0.63;;;0.60;;
48651;SDS011;34442;52.362;-1.302;2023-03-01T01:00:49;0.85;;;0.80;;
48651;SDS011;34442;52.362;-1.302;2023-03-01T01:03:15;1.52;;;0.90;;
48651;SDS011;34442;52.362;-1.302;2023-03-01T01:05:40;2.10;;;0.90;;
48651;SDS011;34442;52.362;-1.302;2023-03-01T01:08:05;0.63;;;0.60;;
48651;SDS011;34442;52.362;-1.302;2023-03-01T01:10:33;1.08;;;0.70;;
48651;SDS011;34442;52.362;-1.302;2023-03-01T01:12:59;1.27;;;0.73;;
48651;SDS011;34442;52.362;-1.302;2023-03-01T01:15:25;1.27;;;0.73;;
48651;SDS011;34442;52.362;-1.302;2023-03-01T01:17:51;0.82;;;0.68;;
48651;SDS011;34442;52.362;-1.302;2023-03-01T01:20:17;0.90;;;0.75;;
48651;SDS011;34442;52.362;-1.302;2023-03-01T01:22:42;1.70;;;0.80;;
48651;SDS011;34442;52.362;-1.302;2023-03-01T01:25:08;0.50;;;0.50;;
48651;SDS011;34442;52.362;-1.302;2023-03-01T01:27:33;1.02;;;0.63;;
48651;SDS011;34442;52.362;-1.302;2023-03-01T01:29:59;0.70;;;0.50;;
48651;SDS011;34442;52.362;-1.302;2023-03-01T01:32:25;1.67;;;0.80;;
48651;SDS011;34442;52.362;-1.302;2023-03-01T01:34:50;0.55;;;0.47;;
48651;SDS011;34442;52.362;-1.302;2023-03-01T01:37:15;2.50;;;0.70;;
48651;SDS011;34442;52.362;-1.302;2023-03-01T01:39:41;0.60;;;0.60;;
48651;SDS011;34442;52.362;-1.302;2023-03-01T01:42:09;1.33;;;0.60;;
48651;SDS011;34442;52.362;-1.302;2023-03-01T01:44:42;1.02;;;0.68;;
48651;SDS011;34442;52.362;-1.302;2023-03-01T01:47:17;0.65;;;0.60;;
48651;SDS011;34442;52.362;-1.302;2023-03-01T01:49:50;0.95;;;0.70;;
48651;SDS011;34442;52.362;-1.302;2023-03-01T01:52:27;1.00;;;0.80;;
48651;SDS011;34442;52.362;-1.302;2023-03-01T01:55:07;1.23;;;1.05;;
48651;SDS011;34442;52.362;-1.302;2023-03-01T01:57:43;1.50;;;0.70;;
48651;SDS011;34442;52.362;-1.302;2023-03-01T02:00:13;0.90;;;0.70;;
48651;SDS011;34442;52.362;-1.302;2023-03-01T02:02:42;0.70;;;0.60;;
48651;SDS011;34442;52.362;-1.302;2023-03-01T02:05:12;1.60;;;0.70;;
48651;SDS011;34442;52.362;-1.302;2023-03-01T02:07:46;1.17;;;0.90;;
48651;SDS011;34442;52.362;-1.302;2023-03-01T02:10:12;2.60;;;0.95;;
48651;SDS011;34442;52.362;-1.302;2023-03-01T02:12:38;2.00;;;0.90;;
48651;SDS011;34442;52.362;-1.302;2023-03-01T02:15:04;2.00;;;1.10;;
48651;SDS011;34442;52.362;-1.302;2023-03-01T02:17:30;1.80;;;1.05;;
48651;SDS011;34442;52.362;-1.302;2023-03-01T02:20:13;2.50;;;1.00;;
48651;SDS011;34442;52.362;-1.302;2023-03-01T02:22:48;1.65;;;0.90;;
48651;SDS011;34442;52.362;-1.302;2023-03-01T02:27:56;1.70;;;0.80;;
48651;SDS011;34442;52.362;-1.302;2023-03-01T02:30:29;0.60;;;0.60;;
48651;SDS011;34442;52.362;-1.302;2023-03-01T02:32:57;1.17;;;0.93;;
48651;SDS011;34442;52.362;-1.302;2023-03-01T02:35:27;0.98;;;0.70;;
48651;SDS011;34442;52.362;-1.302;2023-03-01T02:37:57;0.85;;;0.60;;
48651;SDS011;34442;52.362;-1.302;2023-03-01T02:40:25;1.52;;;1.00;;
48651;SDS011;34442;52.362;-1.302;2023-03-01T02:42:54;2.92;;;1.02;;
48651;SDS011;34442;52.362;-1.302;2023-03-01T02:45:22;0.70;;;0.70;;
48651;SDS011;34442;52.362;-1.302;2023-03-01T02:47:48;2.17;;;0.85;;
48651;SDS011;34442;52.362;-1.302;2023-03-01T02:55:37;2.53;;;1.00;;
48651;SDS011;34442;52.362;-1.302;2023-03-01T02:58:03;1.40;;;0.82;;
48651;SDS011;34442;52.362;-1.302;2023-03-01T03:00:34;1.90;;;0.73;;
48651;SDS011;34442;52.362;-1.302;2023-03-01T03:03:05;1.40;;;0.80;;
48651;SDS011;34442;52.362;-1.302;2023-03-01T03:05:31;0.90;;;0.73;;
48651;SDS011;34442;52.362;-1.302;2023-03-01T03:07:58;1.40;;;0.80;;
48651;SDS011;34442;52.362;-1.302;2023-03-01T03:10:28;1.95;;;0.80;;
48651;SDS011;34442;52.362;-1.302;2023-03-01T03:12:57;0.70;;;0.70;;
48651;SDS011;34442;52.362;-1.302;2023-03-01T03:15:27;1.40;;;0.77;;
48651;SDS011;34442;52.362;-1.302;2023-03-01T03:17:54;2.03;;;0.90;;
48651;SDS011;34442;52.362;-1.302;2023-03-01T03:20:23;0.70;;;0.70;;
48651;SDS011;34442;52.362;-1.302;2023-03-01T03:22:51;2.00;;;1.02;;
48651;SDS011;34442;52.362;-1.302;2023-03-01T03:25:18;2.20;;;0.68;;
48651;SDS011;34442;52.362;-1.302;2023-03-01T03:27:45;1.70;;;0.80;;
48651;SDS011;34442;52.362;-1.302;2023-03-01T03:30:13;1.15;;;0.80;;
48651;SDS011;34442;52.362;-1.302;2023-03-01T03:32:41;1.95;;;0.80;;
48651;SDS011;34442;52.362;-1.302;2023-03-01T03:35:17;1.27;;;0.80;;
48651;SDS011;34442;52.362;-1.302;2023-03-01T03:37:44;2.95;;;1.52;;
48651;SDS011;34442;52.362;-1.302;2023-03-01T03:40:35;1.87;;;0.90;;
48651;SDS011;34442;52.362;-1.302;2023-03-01T03:43:03;0.82;;;0.80;;
48651;SDS011;34442;52.362;-1.302;2023-03-01T03:45:29;2.45;;;1.00;;
48651;SDS011;34442;52.362;-1.302;2023-03-01T03:47:55;1.35;;;0.88;;
48651;SDS011;34442;52.362;-1.302;2023-03-01T03:50:20;3.17;;;1.00;;
48651;SDS011;34442;52.362;-1.302;2023-03-01T03:52:45;1.55;;;0.90;;
48651;SDS011;34442;52.362;-1.302;2023-03-01T03:55:11;0.73;;;0.70;;
48651;SDS011;34442;52.362;-1.302;2023-03-01T03:57:38;1.98;;;0.80;;
48651;SDS011;34442;52.362;-1.302;2023-03-01T04:00:04;1.90;;;1.20;;
48651;SDS011;34442;52.362;-1.302;2023-03-01T04:02:37;3.78;;;1.50;;
48651;SDS011;34442;52.362;-1.302;2023-03-01T04:05:07;1.55;;;0.98;;
48651;SDS011;34442;52.362;-1.302;2023-03-01T04:07:34;3.22;;;1.40;;
48651;SDS011;34442;52.362;-1.302;2023-03-01T04:10:01;2.63;;;0.90;;
48651;SDS011;34442;52.362;-1.302;2023-03-01T04:12:31;1.88;;;1.00;;
48651;SDS011;34442;52.362;-1.302;2023-03-01T04:14:59;1.50;;;1.02;;
48651;SDS011;34442;52.362;-1.302;2023-03-01T04:17:25;4.18;;;1.27;;
48651;SDS011;34442;52.362;-1.302;2023-03-01T04:19:50;2.53;;;1.02;;
48651;SDS011;34442;52.362;-1.302;2023-03-01T04:22:16;2.90;;;1.20;;
48651;SDS011;34442;52.362;-1.302;2023-03-01T04:24:43;2.00;;;1.00;;
48651;SDS011;34442;52.362;-1.302;2023-03-01T04:27:09;2.28;;;1.13;;
48651;SDS011;34442;52.362;-1.302;2023-03-01T04:29:36;2.90;;;1.10;;
48651;SDS011;34442;52.362;-1.302;2023-03-01T04:32:02;1.65;;;0.90;;
48651;SDS011;34442;52.362;-1.302;2023-03-01T04:34:28;2.58;;;0.95;;
48651;SDS011;34442;52.362;-1.302;2023-03-01T04:36:54;2.03;;;1.13;;
48651;SDS011;34442;52.362;-1.302;2023-03-01T04:39:19;2.72;;;1.30;;
48651;SDS011;34442;52.362;-1.302;2023-03-01T04:41:45;3.13;;;0.88;;
48651;SDS011;34442;52.362;-1.302;2023-03-01T04:44:10;1.05;;;0.70;;
48651;SDS011;34442;52.362;-1.302;2023-03-01T04:46:36;2.50;;;0.80;;
48651;SDS011;34442;52.362;-1.302;2023-03-01T04:49:05;2.72;;;1.20;;
48651;SDS011;34442;52.362;-1.302;2023-03-01T04:51:30;1.17;;;0.77;;
48651;SDS011;34442;52.362;-1.302;2023-03-01T04:53:59;1.15;;;0.70;;
48651;SDS011;34442;52.362;-1.302;2023-03-01T04:56:25;1.65;;;0.90;;
48651;SDS011;34442;52.362;-1.302;2023-03-01T04:58:53;1.30;;;0.85;;
48651;SDS011;34442;52.362;-1.302;2023-03-01T05:01:19;3.15;;;1.10;;
48651;SDS011;34442;52.362;-1.302;2023-03-01T05:03:48;0.82;;;0.80;;
48651;SDS011;34442;52.362;-1.302;2023-03-01T05:06:15;1.27;;;0.80;;
48651;SDS011;34442;52.362;-1.302;2023-03-01T05:08:41;1.05;;;0.80;;
48651;SDS011;34442;52.362;-1.302;2023-03-01T05:11:08;0.65;;;0.60;;
48651;SDS011;34442;52.362;-1.302;2023-03-01T05:13:34;1.90;;;0.93;;
48651;SDS011;34442;52.362;-1.302;2023-03-01T05:16:01;2.45;;;0.85;;
48651;SDS011;34442;52.362;-1.302;2023-03-01T05:18:28;2.40;;;0.90;;
48651;SDS011;34442;52.362;-1.302;2023-03-01T05:21:00;2.38;;;1.02;;
48651;SDS011;34442;52.362;-1.302;2023-03-01T05:23:37;2.55;;;0.98;;
48651;SDS011;34442;52.362;-1.302;2023-03-01T05:26:03;3.70;;;1.17;;
48651;SDS011;34442;52.362;-1.302;2023-03-01T05:28:30;1.00;;;0.82;;
48651;SDS011;34442;52.362;-1.302;2023-03-01T05:30:57;1.13;;;0.75;;
48651;SDS011;34442;52.362;-1.302;2023-03-01T05:33:23;0.90;;;0.70;;
48651;SDS011;34442;52.362;-1.302;2023-03-01T05:35:49;2.03;;;0.80;;
48651;SDS011;34442;52.362;-1.302;2023-03-01T05:38:17;1.10;;;0.90;;
48651;SDS011;34442;52.362;-1.302;2023-03-01T05:40:43;2.83;;;1.30;;
48651;SDS011;34442;52.362;-1.302;2023-03-01T05:43:10;1.30;;;0.80;;
48651;SDS011;34442;52.362;-1.302;2023-03-01T05:45:39;1.55;;;1.00;;
48651;SDS011;34442;52.362;-1.302;2023-03-01T05:48:06;1.23;;;0.93;;
48651;SDS011;34442;52.362;-1.302;2023-03-01T05:50:33;1.55;;;0.80;;
48651;SDS011;34442;52.362;-1.302;2023-03-01T05:53:02;1.77;;;0.90;;
48651;SDS011;34442;52.362;-1.302;2023-03-01T05:55:30;1.30;;;0.70;;
48651;SDS011;34442;52.362;-1.302;2023-03-01T05:57:59;1.23;;;0.73;;
48651;SDS011;34442;52.362;-1.302;2023-03-01T06:00:25;0.90;;;0.70;;
48651;SDS011;34442;52.362;-1.302;2023-03-01T06:02:52;2.33;;;1.00;;
48651;SDS011;34442;52.362;-1.302;2023-03-01T06:05:18;1.38;;;1.08;;
48651;SDS011;34442;52.362;-1.302;2023-03-01T06:07:44;1.73;;;1.00;;
48651;SDS011;34442;52.362;-1.302;2023-03-01T06:10:09;1.75;;;1.13;;
48651;SDS011;34442;52.362;-1.302;2023-03-01T06:12:36;2.47;;;1.35;;
48651;SDS011;34442;52.362;-1.302;2023-03-01T06:15:03;2.85;;;1.30;;
48651;SDS011;34442;52.362;-1.302;2023-03-01T06:17:31;2.28;;;1.25;;
48651;SDS011;34442;52.362;-1.302;2023-03-01T06:19:58;4.18;;;1.48;;
48651;SDS011;34442;52.362;-1.302;2023-03-01T06:22:23;2.65;;;1.30;;
48651;SDS011;34442;52.362;-1.302;2023-03-01T06:24:49;3.80;;;1.40;;
48651;SDS011;34442;52.362;-1.302;2023-03-01T06:27:14;4.68;;;1.70;;
48651;SDS011;34442;52.362;-1.302;2023-03-01T06:29:40;2.42;;;1.40;;
48651;SDS011;34442;52.362;-1.302;2023-03-01T06:32:05;2.20;;;1.23;;
48651;SDS011;34442;52.362;-1.302;2023-03-01T06:34:31;3.67;;;1.70;;
48651;SDS011;34442;52.362;-1.302;2023-03-01T06:36:57;2.25;;;1.17;;
48651;SDS011;34442;52.362;-1.302;2023-03-01T06:39:22;2.15;;;1.08;;
48651;SDS011;34442;52.362;-1.302;2023-03-01T06:41:47;2.33;;;1.00;;
48651;SDS011;34442;52.362;-1.302;2023-03-01T06:44:13;1.15;;;1.05;;
48651;SDS011;34442;52.362;-1.302;2023-03-01T06:46:39;3.00;;;1.15;;
48651;SDS011;34442;52.362;-1.302;2023-03-01T06:49:05;1.75;;;1.10;;
48651;SDS011;34442;52.362;-1.302;2023-03-01T06:51:34;5.38;;;1.63;;
48651;SDS011;34442;52.362;-1.302;2023-03-01T06:54:00;1.77;;;0.88;;
48651;SDS011;34442;52.362;-1.302;2023-03-01T06:56:26;3.13;;;1.20;;
48651;SDS011;34442;52.362;-1.302;2023-03-01T06:58:51;1.38;;;0.80;;
48651;SDS011;34442;52.362;-1.302;2023-03-01T07:01:17;2.67;;;1.10;;
48651;SDS011;34442;52.362;-1.302;2023-03-01T07:03:43;3.17;;;1.20;;
48651;SDS011;34442;52.362;-1.302;2023-03-01T07:06:09;3.15;;;1.30;;
48651;SDS011;34442;52.362;-1.302;2023-03-01T07:08:35;3.17;;;1.10;;
48651;SDS011;34442;52.362;-1.302;2023-03-01T07:11:00;3.30;;;1.65;;
48651;SDS011;34442;52.362;-1.302;2023-03-01T07:13:27;2.90;;;1.30;;
48651;SDS011;34442;52.362;-1.302;2023-03-01T07:15:52;2.10;;;0.80;;
48651;SDS011;34442;52.362;-1.302;2023-03-01T07:18:18;2.83;;;1.38;;
48651;SDS011;34442;52.362;-1.302;2023-03-01T07:20:43;2.88;;;1.20;;
48651;SDS011;34442;52.362;-1.302;2023-03-01T07:23:09;1.67;;;0.80;;
48651;SDS011;34442;52.362;-1.302;2023-03-01T07:25:34;1.45;;;0.90;;
48651;SDS011;34442;52.362;-1.302;2023-03-01T07:28:00;1.08;;;0.80;;
48651;SDS011;34442;52.362;-1.302;2023-03-01T07:30:26;1.55;;;0.90;;
48651;SDS011;34442;52.362;-1.302;2023-03-01T07:32:53;1.15;;;0.82;;
48651;SDS011;34442;52.362;-1.302;2023-03-01T07:35:20;2.17;;;1.00;;
48651;SDS011;34442;52.362;-1.302;2023-03-01T07:37:46;1.88;;;1.10;;
48651;SDS011;34442;52.362;-1.302;2023-03-01T07:40:11;1.05;;;0.93;;
48651;SDS011;34442;52.362;-1.302;2023-03-01T07:42:39;1.88;;;1.00;;
48651;SDS011;34442;52.362;-1.302;2023-03-01T07:45:05;1.88;;;0.90;;
48651;SDS011;34442;52.362;-1.302;2023-03-01T07:47:31;1.63;;;0.80;;
48651;SDS011;34442;52.362;-1.302;2023-03-01T07:49:57;2.22;;;0.82;;
48651;SDS011;34442;52.362;-1.302;2023-03-01T07:52:23;0.77;;;0.68;;
48651;SDS011;34442;52.362;-1.302;2023-03-01T07:54:48;2.15;;;1.15;;
48651;SDS011;34442;52.362;-1.302;2023-03-01T07:57:13;2.63;;;1.10;;
48651;SDS011;34442;52.362;-1.302;2023-03-01T07:59:39;1.75;;;0.90;;
48651;SDS011;34442;52.362;-1.302;2023-03-01T08:02:04;1.42;;;0.80;;
48651;SDS011;34442;52.362;-1.302;2023-03-01T08:04:31;2.15;;;1.00;;
48651;SDS011;34442;52.362;-1.302;2023-03-01T08:06:58;3.72;;;1.67;;
48651;SDS011;34442;52.362;-1.302;2023-03-01T08:09:23;3.08;;;1.10;;
48651;SDS011;34442;52.362;-1.302;2023-03-01T08:11:48;4.45;;;1.20;;
48651;SDS011;34442;52.362;-1.302;2023-03-01T08:14:14;2.13;;;1.25;;
48651;SDS011;34442;52.362;-1.302;2023-03-01T08:16:39;4.07;;;1.45;;
48651;SDS011;34442;52.362;-1.302;2023-03-01T08:19:09;2.40;;;1.23;;
48651;SDS011;34442;52.362;-1.302;2023-03-01T08:21:35;2.25;;;1.10;;
48651;SDS011;34442;52.362;-1.302;2023-03-01T08:24:02;2.70;;;1.38;;
48651;SDS011;34442;52.362;-1.302;2023-03-01T08:26:29;3.45;;;1.30;;
48651;SDS011;34442;52.362;-1.302;2023-03-01T08:28:55;2.70;;;1.48;;
48651;SDS011;34442;52.362;-1.302;2023-03-01T08:33:58;5.85;;;1.48;;
48651;SDS011;34442;52.362;-1.302;2023-03-01T08:36:29;4.97;;;1.70;;
48651;SDS011;34442;52.362;-1.302;2023-03-01T08:38:56;7.65;;;2.00;;
48651;SDS011;34442;52.362;-1.302;2023-03-01T08:41:21;2.85;;;1.42;;
48651;SDS011;34442;52.362;-1.302;2023-03-01T08:43:47;3.47;;;1.40;;
48651;SDS011;34442;52.362;-1.302;2023-03-01T08:46:12;4.97;;;2.40;;
48651;SDS011;34442;52.362;-1.302;2023-03-01T08:48:38;6.93;;;2.60;;
48651;SDS011;34442;52.362;-1.302;2023-03-01T08:51:11;3.85;;;1.90;;
48651;SDS011;34442;52.362;-1.302;2023-03-01T08:53:41;4.82;;;2.20;;
48651;SDS011;34442;52.362;-1.302;2023-03-01T08:56:07;6.35;;;2.67;;
48651;SDS011;34442;52.362;-1.302;2023-03-01T08:58:46;4.85;;;2.22;;
48651;SDS011;34442;52.362;-1.302;2023-03-01T09:01:14;5.00;;;2.53;;
48651;SDS011;34442;52.362;-1.302;2023-03-01T09:03:41;4.88;;;2.22;;
48651;SDS011;34442;52.362;-1.302;2023-03-01T09:06:08;4.78;;;2.53;;
48651;SDS011;34442;52.362;-1.302;2023-03-01T09:08:34;6.55;;;2.97;;
48651;SDS011;34442;52.362;-1.302;2023-03-01T09:11:05;5.47;;;2.88;;
48651;SDS011;34442;52.362;-1.302;2023-03-01T09:13:32;5.35;;;2.70;;
48651;SDS011;34442;52.362;-1.302;2023-03-01T09:15:58;4.10;;;2.13;;
48651;SDS011;34442;52.362;-1.302;2023-03-01T09:18:26;5.93;;;3.00;;
48651;SDS011;34442;52.362;-1.302;2023-03-01T09:20:51;7.95;;;2.50;;
48651;SDS011;34442;52.362;-1.302;2023-03-01T09:23:18;4.72;;;2.42;;
48651;SDS011;34442;52.362;-1.302;2023-03-01T09:25:43;4.50;;;2.40;;
48651;SDS011;34442;52.362;-1.302;2023-03-01T09:28:08;3.35;;;1.73;;
48651;SDS011;34442;52.362;-1.302;2023-03-01T09:30:36;5.10;;;2.80;;
48651;SDS011;34442;52.362;-1.302;2023-03-01T09:33:02;4.55;;;2.53;;
48651;SDS011;34442;52.362;-1.302;2023-03-01T09:35:27;4.97;;;2.75;;
48651;SDS011;34442;52.362;-1.302;2023-03-01T09:37:53;5.38;;;3.15;;
48651;SDS011;34442;52.362;-1.302;2023-03-01T09:40:19;4.55;;;2.35;;
48651;SDS011;34442;52.362;-1.302;2023-03-01T09:42:56;3.72;;;2.10;;
48651;SDS011;34442;52.362;-1.302;2023-03-01T09:45:35;4.93;;;2.35;;
48651;SDS011;34442;52.362;-1.302;2023-03-01T09:48:05;4.07;;;2.13;;
48651;SDS011;34442;52.362;-1.302;2023-03-01T09:50:38;5.43;;;2.83;;
48651;SDS011;34442;52.362;-1.302;2023-03-01T09:53:08;3.90;;;1.90;;
48651;SDS011;34442;52.362;-1.302;2023-03-01T09:55:52;4.32;;;2.40;;
48651;SDS011;34442;52.362;-1.302;2023-03-01T10:04:28;3.75;;;2.30;;
48651;SDS011;34442;52.362;-1.302;2023-03-01T10:07:05;4.30;;;2.13;;
48651;SDS011;34442;52.362;-1.302;2023-03-01T10:09:33;5.00;;;2.60;;
48651;SDS011;34442;52.362;-1.302;2023-03-01T10:11:59;5.95;;;2.00;;
48651;SDS011;34442;52.362;-1.302;2023-03-01T10:17:57;4.60;;;2.33;;
48651;SDS011;34442;52.362;-1.302;2023-03-01T10:20:18;4.05;;;2.03;;
48651;SDS011;34442;52.362;-1.302;2023-03-01T10:22:45;4.28;;;2.17;;
48651;SDS011;34442;52.362;-1.302;2023-03-01T10:25:15;4.47;;;2.20;;
48651;SDS011;34442;52.362;-1.302;2023-03-01T10:27:52;5.18;;;2.20;;
48651;SDS011;34442;52.362;-1.302;2023-03-01T10:30:20;4.13;;;2.22;;
48651;SDS011;34442;52.362;-1.302;2023-03-01T10:33:01;5.15;;;2.30;;
48651;SDS011;34442;52.362;-1.302;2023-03-01T10:35:28;3.60;;;1.98;;
48651;SDS011;34442;52.362;-1.302;2023-03-01T10:38:10;4.75;;;1.73;;
48651;SDS011;34442;52.362;-1.302;2023-03-01T10:40:57;3.25;;;2.42;;
48651;SDS011;34442;52.362;-1.302;2023-03-01T10:43:23;3.85;;;1.70;;
48651;SDS011;34442;52.362;-1.302;2023-03-01T10:45:51;4.13;;;1.70;;
48651;SDS011;34442;52.362;-1.302;2023-03-01T10:48:20;3.20;;;2.00;;
48651;SDS011;34442;52.362;-1.302;2023-03-01T10:51:04;4.57;;;1.90;;
48651;SDS011;34442;52.362;-1.302;2023-03-01T10:56:08;4.43;;;2.08;;
48651;SDS011;34442;52.362;-1.302;2023-03-01T10:58:35;3.08;;;1.80;;
48651;SDS011;34442;52.362;-1.302;2023-03-01T11:01:45;5.25;;;1.92;;
48651;SDS011;34442;52.362;-1.302;2023-03-01T11:06:30;2.67;;;1.33;;
48651;SDS011;34442;52.362;-1.302;2023-03-01T11:08:55;2.47;;;1.27;;
48651;SDS011;34442;52.362;-1.302;2023-03-01T11:11:31;2.28;;;1.30;;
48651;SDS011;34442;52.362;-1.302;2023-03-01T11:14:17;1.73;;;1.20;;
48651;SDS011;34442;52.362;-1.302;2023-03-01T11:17:01;3.22;;;1.58;;
48651;SDS011;34442;52.362;-1.302;2023-03-01T11:19:28;2.83;;;1.30;;
48651;SDS011;34442;52.362;-1.302;2023-03-01T11:22:04;4.05;;;1.67;;
48651;SDS011;34442;52.362;-1.302;2023-03-01T11:24:48;2.30;;;1.40;;
48651;SDS011;34442;52.362;-1.302;2023-03-01T11:27:21;2.42;;;1.45;;
48651;SDS011;34442;52.362;-1.302;2023-03-01T11:30:00;2.92;;;1.38;;
48651;SDS011;34442;52.362;-1.302;2023-03-01T11:32:40;2.53;;;1.50;;
48651;SDS011;34442;52.362;-1.302;2023-03-01T11:35:14;2.60;;;1.42;;
48651;SDS011;34442;52.362;-1.302;2023-03-01T11:37:53;3.55;;;1.58;;
48651;SDS011;34442;52.362;-1.302;2023-03-01T11:43:26;2.95;;;1.73;;
48651;SDS011;34442;52.362;-1.302;2023-03-01T11:46:11;3.15;;;1.50;;
48651;SDS011;34442;52.362;-1.302;2023-03-01T11:52:03;1.85;;;1.13;;
48651;SDS011;34442;52.362;-1.302;2023-03-01T12:03:14;3.15;;;1.30;;
48651;SDS011;34442;52.362;-1.302;2023-03-01T12:28:17;5.15;;;1.83;;
48651;SDS011;34442;52.362;-1.302;2023-03-01T12:45:20;4.50;;;1.42;;
48651;SDS011;34442;52.362;-1.302;2023-03-01T12:50:53;3.17;;;1.45;;
48651;SDS011;34442;52.362;-1.302;2023-03-01T12:53:41;2.03;;;1.20;;
48651;SDS011;34442;52.362;-1.302;2023-03-01T12:56:12;3.15;;;1.80;;
48651;SDS011;34442;52.362;-1.302;2023-03-01T13:01:36;1.73;;;1.10;;
48651;SDS011;34442;52.362;-1.302;2023-03-01T13:11:58;1.92;;;1.00;;
48651;SDS011;34442;52.362;-1.302;2023-03-01T13:16:51;3.03;;;1.13;;
48651;SDS011;34442;52.362;-1.302;2023-03-01T13:19:24;2.35;;;0.80;;
48651;SDS011;34442;52.362;-1.302;2023-03-01T13:21:51;1.38;;;0.70;;
48651;SDS011;34442;52.362;-1.302;2023-03-01T13:29:32;2.58;;;0.80;;
48651;SDS011;34442;52.362;-1.302;2023-03-01T13:34:49;1.95;;;1.00;;
48651;SDS011;34442;52.362;-1.302;2023-03-01T13:37:24;1.17;;;0.70;;
48651;SDS011;34442;52.362;-1.302;2023-03-01T13:39:58;0.77;;;0.60;;
48651;SDS011;34442;52.362;-1.302;2023-03-01T13:45:51;1.65;;;0.50;;
48651;SDS011;34442;52.362;-1.302;2023-03-01T13:48:20;1.50;;;1.05;;
48651;SDS011;34442;52.362;-1.302;2023-03-01T13:50:51;2.03;;;0.80;;
48651;SDS011;34442;52.362;-1.302;2023-03-01T13:53:22;1.33;;;1.00;;
48651;SDS011;34442;52.362;-1.302;2023-03-01T13:55:51;2.05;;;0.75;;
48651;SDS011;34442;52.362;-1.302;2023-03-01T14:03:26;1.10;;;0.70;;
48651;SDS011;34442;52.362;-1.302;2023-03-01T14:06:03;2.13;;;0.80;;
48651;SDS011;34442;52.362;-1.302;2023-03-01T14:09:00;2.08;;;0.82;;
48651;SDS011;34442;52.362;-1.302;2023-03-01T14:11:40;1.77;;;0.80;;
48651;SDS011;34442;52.362;-1.302;2023-03-01T14:22:43;2.25;;;0.90;;
48651;SDS011;34442;52.362;-1.302;2023-03-01T14:25:18;1.42;;;0.60;;
48651;SDS011;34442;52.362;-1.302;2023-03-01T14:28:31;0.93;;;0.63;;
48651;SDS011;34442;52.362;-1.302;2023-03-01T14:30:50;1.30;;;0.70;;
48651;SDS011;34442;52.362;-1.302;2023-03-01T14:33:27;1.58;;;0.95;;
48651;SDS011;34442;52.362;-1.302;2023-03-01T14:36:07;2.28;;;0.95;;
48651;SDS011;34442;52.362;-1.302;2023-03-01T14:38:40;4.28;;;1.48;;
48651;SDS011;34442;52.362;-1.302;2023-03-01T14:43:41;1.48;;;0.93;;
48651;SDS011;34442;52.362;-1.302;2023-03-01T14:46:18;1.65;;;0.82;;
48651;SDS011;34442;52.362;-1.302;2023-03-01T14:48:47;1.27;;;0.82;;
48651;SDS011;34442;52.362;-1.302;2023-03-01T14:51:14;2.25;;;1.10;;
48651;SDS011;34442;52.362;-1.302;2023-03-01T14:53:40;1.27;;;0.82;;
48651;SDS011;34442;52.362;-1.302;2023-03-01T14:56:12;2.63;;;1.38;;
48651;SDS011;34442;52.362;-1.302;2023-03-01T14:58:39;1.50;;;0.98;;
48651;SDS011;34442;52.362;-1.302;2023-03-01T15:01:05;1.88;;;0.80;;
48651;SDS011;34442;52.362;-1.302;2023-03-01T15:06:15;1.67;;;0.90;;
48651;SDS011;34442;52.362;-1.302;2023-03-01T15:08:48;0.65;;;0.65;;
48651;SDS011;34442;52.362;-1.302;2023-03-01T15:13:57;0.70;;;0.60;;
48651;SDS011;34442;52.362;-1.302;2023-03-01T15:16:29;1.52;;;0.80;;
48651;SDS011;34442;52.362;-1.302;2023-03-01T15:18:56;2.00;;;0.82;;
48651;SDS011;34442;52.362;-1.302;2023-03-01T15:21:31;1.35;;;0.77;;
48651;SDS011;34442;52.362;-1.302;2023-03-01T15:24:06;0.63;;;0.60;;
48651;SDS011;34442;52.362;-1.302;2023-03-01T15:26:58;2.05;;;1.00;;
48651;SDS011;34442;52.362;-1.302;2023-03-01T15:29:31;1.65;;;1.10;;
48651;SDS011;34442;52.362;-1.302;2023-03-01T15:31:59;3.70;;;1.08;;
48651;SDS011;34442;52.362;-1.302;2023-03-01T15:34:29;3.08;;;0.90;;
48651;SDS011;34442;52.362;-1.302;2023-03-01T15:37:00;1.42;;;0.90;;
48651;SDS011;34442;52.362;-1.302;2023-03-01T15:39:38;2.28;;;0.90;;
48651;SDS011;34442;52.362;-1.302;2023-03-01T15:45:06;1.98;;;1.10;;
48651;SDS011;34442;52.362;-1.302;2023-03-01T15:52:54;1.77;;;0.80;;
48651;SDS011;34442;52.362;-1.302;2023-03-01T15:55:22;1.17;;;0.75;;
48651;SDS011;34442;52.362;-1.302;2023-03-01T16:00:30;1.58;;;1.00;;
48651;SDS011;34442;52.362;-1.302;2023-03-01T16:02:55;2.05;;;0.90;;
48651;SDS011;34442;52.362;-1.302;2023-03-01T16:05:23;1.83;;;0.85;;
48651;SDS011;34442;52.362;-1.302;2023-03-01T16:07:53;2.50;;;1.00;;
48651;SDS011;34442;52.362;-1.302;2023-03-01T16:10:19;4.40;;;1.33;;
48651;SDS011;34442;52.362;-1.302;2023-03-01T16:12:44;2.80;;;0.85;;
48651;SDS011;34442;52.362;-1.302;2023-03-01T16:15:17;2.10;;;0.85;;
48651;SDS011;34442;52.362;-1.302;2023-03-01T16:17:47;2.33;;;0.85;;
48651;SDS011;34442;52.362;-1.302;2023-03-01T16:20:13;1.02;;;0.77;;
48651;SDS011;34442;52.362;-1.302;2023-03-01T16:22:42;1.48;;;0.98;;
48651;SDS011;34442;52.362;-1.302;2023-03-01T16:25:09;1.52;;;1.05;;
48651;SDS011;34442;52.362;-1.302;2023-03-01T16:27:36;1.73;;;0.90;;
48651;SDS011;34442;52.362;-1.302;2023-03-01T16:30:02;1.75;;;0.82;;
48651;SDS011;34442;52.362;-1.302;2023-03-01T16:32:29;1.52;;;0.80;;
48651;SDS011;34442;52.362;-1.302;2023-03-01T16:34:54;2.72;;;1.00;;
48651;SDS011;34442;52.362;-1.302;2023-03-01T16:37:19;0.93;;;0.70;;
48651;SDS011;34442;52.362;-1.302;2023-03-01T16:39:46;1.00;;;0.80;;
48651;SDS011;34442;52.362;-1.302;2023-03-01T16:42:14;3.47;;;0.80;;
48651;SDS011;34442;52.362;-1.302;2023-03-01T16:44:41;1.27;;;0.75;;
48651;SDS011;34442;52.362;-1.302;2023-03-01T16:47:06;3.38;;;1.17;;
48651;SDS011;34442;52.362;-1.302;2023-03-01T16:49:32;1.65;;;0.98;;
48651;SDS011;34442;52.362;-1.302;2023-03-01T16:52:00;2.30;;;0.70;;
48651;SDS011;34442;52.362;-1.302;2023-03-01T16:54:25;1.15;;;0.50;;
48651;SDS011;34442;52.362;-1.302;2023-03-01T16:56:51;1.98;;;0.77;;
48651;SDS011;34442;52.362;-1.302;2023-03-01T16:59:16;0.63;;;0.63;;
48651;SDS011;34442;52.362;-1.302;2023-03-01T17:01:43;1.23;;;0.73;;